»·PEaware :: N123MS KBUR-KLAS

N123MS :: KBUR-KLAS

FLIGHT INFORMATION

Flight Status: Arrived
Operator: Privately registered:
United States
More flights under this callsign
Pilot: Anonymous 23958 (23958)
Aircraft: MOONEY M-20 201 202 205 220 ATS MSE
(M20P)
More flights by this aircraft type
Origin: KBUR Bob Hope-Burbank
United States
Destination: KLAS McCarran Intl
United States
More flights between these airports :: More routes between these airports
Route: VNY3 DAG CRESO4
File this flight plan on PilotEdge
Remarks: I-5 Rating
Altitude:
(Current/Filed)
13,000ft
Speed:
(Current/Filed)
170kts
Departed: 17-Mar-20 06:30 PM
Arrived: 17-Mar-20 07:57 PM
Distance/Time
Traveled:
193nm/1:27
Distance/Time
To Go:
Arrived

Flight Plot

Page will automatically refresh every two minutes.

Flight plan parsing failed; only flown route is shown


Map Options




Map Legend


Flown Route
Filed Route
Departure Airport
Arrival Airport
Navaid (VOR, NDB)
Fix

Horizontal Profiles

Position Reports

Time Latitude Longitude Heading Altitude Ground
Speed
17-Mar-20 17:54 34.196881 -118.352678 179 781ft 0kts
17-Mar-20 17:55 34.196881 -118.352678 179 781ft 0kts
17-Mar-20 17:56 34.196881 -118.352678 179 781ft 0kts
17-Mar-20 17:57 34.196881 -118.352678 179 781ft 0kts
17-Mar-20 17:58 34.196881 -118.352678 179 781ft 0kts
17-Mar-20 17:59 34.196881 -118.352678 179 781ft 0kts
17-Mar-20 18:00 34.196881 -118.352678 179 781ft 0kts
17-Mar-20 18:01 34.196881 -118.352678 179 781ft 0kts
17-Mar-20 18:02 34.196881 -118.352678 179 781ft 0kts
17-Mar-20 18:03 34.196881 -118.352678 179 781ft 0kts
17-Mar-20 18:04 34.196881 -118.352678 179 781ft 0kts
17-Mar-20 18:05 34.196881 -118.352678 179 781ft 0kts
17-Mar-20 18:06 34.196881 -118.352678 179 781ft 0kts
17-Mar-20 18:07 34.196881 -118.352678 180 781ft 0kts
17-Mar-20 18:08 34.196880 -118.352678 180 781ft 0kts
17-Mar-20 18:09 34.196880 -118.352678 179 781ft 0kts
17-Mar-20 18:10 34.196880 -118.352678 180 781ft 0kts
17-Mar-20 18:11 34.196880 -118.352678 180 781ft 0kts
17-Mar-20 18:12 34.196880 -118.352678 179 781ft 0kts
17-Mar-20 18:13 34.196880 -118.352678 179 781ft 0kts
17-Mar-20 18:14 34.197078 -118.352983 310 781ft 0kts
17-Mar-20 18:15 34.197097 -118.354120 264 781ft 1kts
17-Mar-20 18:16 34.197285 -118.354988 355 781ft 5kts
17-Mar-20 18:17 34.200446 -118.355697 348 781ft 9kts
17-Mar-20 18:18 34.202246 -118.356138 347 781ft 7kts
17-Mar-20 18:19 34.205786 -118.357227 345 781ft 17kts
17-Mar-20 18:20 34.211135 -118.358767 346 781ft 13kts
17-Mar-20 18:21 34.212147 -118.359154 315 781ft 3kts
17-Mar-20 18:22 34.212266 -118.359632 262 781ft 0kts
17-Mar-20 18:23 34.212266 -118.359632 262 781ft 0kts
17-Mar-20 18:24 34.212266 -118.359632 262 781ft 0kts
17-Mar-20 18:25 34.212266 -118.359632 262 781ft 0kts
17-Mar-20 18:26 34.212266 -118.359632 262 781ft 0kts
17-Mar-20 18:27 34.212266 -118.359633 262 781ft 0kts
17-Mar-20 18:28 34.212114 -118.360244 222 781ft 12kts
17-Mar-20 18:29 34.194176 -118.355859 183 1111ft 93kts
17-Mar-20 18:30 34.176035 -118.375648 223 1904ft 96kts
17-Mar-20 18:31 34.153910 -118.403794 223 2637ft 127kts
17-Mar-20 18:32 34.128198 -118.435710 224 3200ft 140kts
17-Mar-20 18:33 34.105555 -118.475492 285 3277ft 159kts
17-Mar-20 18:34 34.144142 -118.492213 349 4248ft 146kts
17-Mar-20 18:35 34.183127 -118.492832 0 5320ft 136kts
17-Mar-20 18:36 34.220016 -118.488894 6 6404ft 130kts
17-Mar-20 18:37 34.255051 -118.482215 9 7479ft 123kts
17-Mar-20 18:38 34.287327 -118.474085 13 8534ft 112kts
17-Mar-20 18:39 34.315425 -118.465160 15 9516ft 94kts
17-Mar-20 18:40 34.339519 -118.455869 17 10156ft 91kts
17-Mar-20 18:41 34.363874 -118.444681 20 10702ft 97kts
17-Mar-20 18:42 34.390005 -118.430141 24 11260ft 110kts
17-Mar-20 18:43 34.416860 -118.405622 49 11849ft 134kts
17-Mar-20 18:44 34.442659 -118.365613 53 12428ft 166kts
17-Mar-20 18:45 34.472763 -118.317662 54 12955ft 189kts
17-Mar-20 18:46 34.507403 -118.262403 53 13011ft 218kts
17-Mar-20 18:47 34.544964 -118.202432 53 13011ft 227kts
17-Mar-20 18:48 34.583276 -118.141103 53 12999ft 229kts
17-Mar-20 18:49 34.621204 -118.078820 63 12992ft 228kts
17-Mar-20 18:50 34.637189 -118.005542 84 12993ft 224kts
17-Mar-20 18:51 34.646021 -117.930358 87 12991ft 224kts
17-Mar-20 18:52 34.654199 -117.855377 87 12987ft 224kts
17-Mar-20 18:53 34.662701 -117.780114 83 12982ft 225kts
17-Mar-20 18:54 34.679205 -117.706302 77 12980ft 227kts
17-Mar-20 18:55 34.697659 -117.633144 76 12980ft 227kts
17-Mar-20 18:56 34.716402 -117.559588 76 12980ft 227kts
17-Mar-20 18:57 34.735091 -117.486240 77 12980ft 227kts
17-Mar-20 18:58 34.753757 -117.412805 77 12981ft 227kts
17-Mar-20 18:59 34.772440 -117.339100 77 12981ft 227kts
17-Mar-20 19:00 34.791069 -117.265399 77 12977ft 228kts
17-Mar-20 19:01 34.809632 -117.191760 77 12975ft 228kts
17-Mar-20 19:02 34.828213 -117.117833 77 12972ft 228kts
17-Mar-20 19:03 34.846721 -117.044003 78 12968ft 227kts
17-Mar-20 19:04 34.865059 -116.970633 78 12966ft 227kts
17-Mar-20 19:05 34.883463 -116.896777 78 12964ft 228kts
17-Mar-20 19:06 34.901840 -116.822860 78 12963ft 228kts
17-Mar-20 19:07 34.920225 -116.748695 78 12963ft 228kts
17-Mar-20 19:08 34.938503 -116.674787 79 12964ft 228kts
17-Mar-20 19:09 34.956937 -116.600732 76 12965ft 229kts
17-Mar-20 19:10 34.984106 -116.529626 66 12966ft 232kts
17-Mar-20 19:11 35.014758 -116.460172 66 12941ft 234kts
17-Mar-20 19:12 35.046291 -116.389012 66 12557ft 243kts
17-Mar-20 19:13 35.078651 -116.315710 66 12119ft 242kts
17-Mar-20 19:14 35.110249 -116.244335 65 11885ft 237kts
17-Mar-20 19:15 35.141301 -116.173883 65 11665ft 234kts
17-Mar-20 19:16 35.171836 -116.104430 65 11450ft 231kts
17-Mar-20 19:17 35.202274 -116.035076 65 11159ft 229kts
17-Mar-20 19:18 35.230190 -115.971672 66 10823ft 193kts
17-Mar-20 19:19 35.254030 -115.917198 66 10498ft 173kts
17-Mar-20 19:20 35.276290 -115.866195 66 10191ft 166kts
17-Mar-20 19:21 35.297575 -115.817482 66 10025ft 155kts
17-Mar-20 19:23 35.320495 -115.774023 52 9936ft 154kts
17-Mar-20 19:24 35.352205 -115.731541 50 9940ft 179kts
17-Mar-20 19:25 35.385913 -115.686538 50 9931ft 173kts
17-Mar-20 19:26 35.418084 -115.643596 50 9927ft 168kts
17-Mar-20 19:29 35.511697 -115.518378 50 9926ft 165kts
17-Mar-20 19:30 35.542592 -115.476848 50 9924ft 164kts
17-Mar-20 19:31 35.572718 -115.436442 51 9920ft 152kts
17-Mar-20 19:32 35.599992 -115.399844 51 9919ft 137kts
17-Mar-20 19:33 35.628147 -115.376341 2 9928ft 127kts
17-Mar-20 19:34 35.662814 -115.373329 1 9932ft 126kts
17-Mar-20 19:35 35.700379 -115.370206 1 9934ft 143kts
17-Mar-20 19:35 35.734518 -115.367487 1 9927ft 151kts
17-Mar-20 19:37 35.773443 -115.336878 53 9930ft 151kts
17-Mar-20 19:38 35.800724 -115.297123 53 9930ft 153kts
17-Mar-20 19:38 35.823735 -115.263617 53 9931ft 153kts
17-Mar-20 19:40 35.857253 -115.214782 53 9546ft 175kts
17-Mar-20 19:41 35.888492 -115.167959 54 8840ft 163kts
17-Mar-20 19:41 35.911276 -115.134299 53 8230ft 144kts
17-Mar-20 19:43 35.937738 -115.096255 53 7883ft 96kts
17-Mar-20 19:43 35.953068 -115.078106 8 7656ft 99kts
17-Mar-20 19:44 35.980016 -115.079309 354 7979ft 109kts
17-Mar-20 19:45 36.019329 -115.082131 354 7738ft 173kts
17-Mar-20 19:46 36.068263 -115.086059 354 7112ft 178kts
17-Mar-20 19:47 36.116489 -115.089960 354 6360ft 170kts
17-Mar-20 19:48 36.163918 -115.093772 354 5514ft 171kts
17-Mar-20 19:49 36.210245 -115.098322 337 4902ft 153kts
17-Mar-20 19:50 36.222998 -115.138696 239 4407ft 127kts
17-Mar-20 19:51 36.190356 -115.145334 173 3778ft 129kts
17-Mar-20 19:52 36.160216 -115.140221 174 3494ft 96kts
17-Mar-20 19:53 36.134200 -115.136558 188 2942ft 87kts
17-Mar-20 19:54 36.114183 -115.146769 212 2625ft 76kts
17-Mar-20 19:55 36.095089 -115.158876 204 2184ft 65kts
17-Mar-20 19:56 36.089270 -115.163119 291 2184ft 0kts
17-Mar-20 19:57 36.089304 -115.163227 291 2184ft 5kts
17-Mar-20 19:58 36.088094 -115.165478 202 2184ft 16kts
17-Mar-20 19:59 36.087209 -115.166361 289 2184ft 0kts
17-Mar-20 20:00 36.087209 -115.166362 289 2184ft 0kts
17-Mar-20 20:01 36.087209 -115.166362 289 2184ft 0kts
17-Mar-20 20:02 36.087209 -115.166362 289 2184ft 0kts
17-Mar-20 20:03 36.087209 -115.166362 289 2184ft 0kts
17-Mar-20 20:04 36.087209 -115.166362 289 2184ft 0kts
17-Mar-20 20:05 36.087209 -115.166363 289 2184ft 0kts
17-Mar-20 20:06 36.087209 -115.166363 289 2184ft 0kts
17-Mar-20 20:07 36.087209 -115.166363 289 2184ft 0kts

Navigation Log

Ident Type
Flight plan parsing failed, navigation log unavailable